createdAt,value
2022-11-24T00:02:20.999Z,58.55
2022-11-24T00:04:52.411Z,58.86
2022-11-24T00:07:23.424Z,58.67
2022-11-24T00:09:55.590Z,58.46
2022-11-24T00:12:29.776Z,58.59
2022-11-24T00:15:01.539Z,58.76
2022-11-24T00:17:34.425Z,58.40
2022-11-24T00:20:06.881Z,58.87
2022-11-24T00:22:44.747Z,59.09
2022-11-24T00:25:18.994Z,58.57
2022-11-24T00:27:49.159Z,58.17
2022-11-24T00:30:19.363Z,58.86
2022-11-24T00:32:51.070Z,58.73
2022-11-24T00:35:21.765Z,58.50
2022-11-24T00:37:51.916Z,58.66
2022-11-24T00:40:22.867Z,59.01
2022-11-24T00:42:54.028Z,58.79
2022-11-24T00:45:24.574Z,58.48
2022-11-24T00:47:55.528Z,58.62
2022-11-24T00:50:27.241Z,58.90
2022-11-24T00:52:57.559Z,58.88
2022-11-24T00:55:27.581Z,58.70
2022-11-24T00:57:58.549Z,58.72
2022-11-24T01:00:29.465Z,58.78
2022-11-24T01:02:59.704Z,58.89
2022-11-24T01:05:29.840Z,59.10
2022-11-24T01:07:59.876Z,59.08
2022-11-24T01:10:31.137Z,58.85
2022-11-24T01:13:02.271Z,59.46
2022-11-24T01:15:32.947Z,59.51
2022-11-24T01:18:04.051Z,58.70
2022-11-24T01:20:35.232Z,58.93
2022-11-24T01:23:06.768Z,58.86
2022-11-24T01:25:37.053Z,58.79
2022-11-24T01:28:07.765Z,59.24
2022-11-24T01:30:37.889Z,58.71
2022-11-24T01:33:09.074Z,59.04
2022-11-24T01:35:39.783Z,58.92
2022-11-24T01:38:09.742Z,58.87
2022-11-24T01:40:39.936Z,58.57
2022-11-24T01:43:24.168Z,58.95
2022-11-24T01:45:57.137Z,58.88
2022-11-24T01:48:34.486Z,58.84
2022-11-24T01:51:14.083Z,58.78
2022-11-24T01:53:50.943Z,58.70
2022-11-24T01:56:22.876Z,58.75
2022-11-24T01:58:56.866Z,58.65
2022-11-24T02:01:27.892Z,58.90
2022-11-24T02:03:59.112Z,59.07
2022-11-24T02:06:33.506Z,58.78
2022-11-24T02:09:46.412Z,58.92
2022-11-24T02:12:17.510Z,58.58
2022-11-24T02:14:48.317Z,58.85
2022-11-24T02:17:19.013Z,59.28
2022-11-24T02:20:01.335Z,58.55
2022-11-24T02:22:34.856Z,58.83
2022-11-24T02:25:26.308Z,58.89
2022-11-24T02:27:59.520Z,58.88
2022-11-24T02:30:31.239Z,58.67
2022-11-24T02:33:02.228Z,58.48
2022-11-24T02:35:33.500Z,58.83
2022-11-24T02:38:04.658Z,58.79
2022-11-24T02:40:35.423Z,58.45
2022-11-24T02:43:17.027Z,59.49
2022-11-24T02:45:47.207Z,59.22
2022-11-24T02:48:18.111Z,59.00
2022-11-24T02:50:49.240Z,59.13
2022-11-24T02:53:19.661Z,58.73
2022-11-24T02:55:50.656Z,59.10
2022-11-24T02:58:23.401Z,59.15
2022-11-24T03:00:55.574Z,58.98
2022-11-24T03:03:26.479Z,58.88
2022-11-24T03:05:56.710Z,59.01
2022-11-24T03:08:26.966Z,59.25
2022-11-24T03:10:57.221Z,59.22
2022-11-24T03:13:27.558Z,59.21
2022-11-24T03:15:58.722Z,59.20
2022-11-24T03:18:29.024Z,59.18
2022-11-24T03:21:02.172Z,59.11
2022-11-24T03:23:32.585Z,58.91
2022-11-24T03:26:14.357Z,59.06
2022-11-24T03:28:44.552Z,58.94
2022-11-24T03:31:16.590Z,59.42
2022-11-24T03:33:46.852Z,59.26
2022-11-24T03:36:19.170Z,59.63
2022-11-24T03:38:49.504Z,59.59
2022-11-24T03:41:20.665Z,59.79
2022-11-24T03:43:51.677Z,59.67
2022-11-24T03:46:23.817Z,59.46
2022-11-24T03:48:53.958Z,59.57
2022-11-24T03:51:24.172Z,59.82
2022-11-24T03:53:55.215Z,59.68
2022-11-24T03:56:25.669Z,59.53
2022-11-24T03:58:56.161Z,59.71
2022-11-24T04:01:27.095Z,59.52
2022-11-24T04:03:58.326Z,60.54
2022-11-24T04:06:28.421Z,59.84
2022-11-24T04:08:59.112Z,59.92
2022-11-24T04:11:47.330Z,59.80
2022-11-24T04:14:17.738Z,60.44
2022-11-24T04:16:47.991Z,60.06
2022-11-24T04:19:18.079Z,60.22
2022-11-24T04:21:48.255Z,60.36
2022-11-24T04:24:20.327Z,60.34
2022-11-24T04:26:52.734Z,60.08
2022-11-24T04:29:25.698Z,59.33
2022-11-24T04:31:56.991Z,59.78
2022-11-24T04:34:27.827Z,59.70
2022-11-24T04:37:00.582Z,59.62
2022-11-24T04:39:31.729Z,59.72
2022-11-24T04:42:03.579Z,59.98
2022-11-24T04:44:36.507Z,59.86
2022-11-24T04:47:09.290Z,60.06
2022-11-24T04:49:41.454Z,60.17
2022-11-24T04:52:14.066Z,60.46
2022-11-24T04:54:46.172Z,60.01
2022-11-24T04:57:21.726Z,60.07
2022-11-24T04:59:55.702Z,60.36
2022-11-24T05:02:26.822Z,60.42
2022-11-24T05:04:59.438Z,60.26
2022-11-24T05:07:30.184Z,60.41
2022-11-24T05:10:19.575Z,60.31
2022-11-24T05:12:59.783Z,60.55
2022-11-24T05:15:31.464Z,60.12
2022-11-24T05:18:02.708Z,60.56
2022-11-24T05:20:33.804Z,60.35
2022-11-24T05:23:10.848Z,60.69
2022-11-24T05:25:47.305Z,59.65
2022-11-24T05:28:18.675Z,61.08
2022-11-24T05:30:50.334Z,59.90
2022-11-24T05:33:22.687Z,60.11
2022-11-24T05:35:53.663Z,60.04
2022-11-24T05:38:25.232Z,59.89
2022-11-24T05:40:55.921Z,60.10
2022-11-24T05:43:28.207Z,59.77
2022-11-24T05:46:03.671Z,59.28
2022-11-24T05:48:34.889Z,60.30
2022-11-24T05:51:09.417Z,60.23
2022-11-24T05:53:40.064Z,59.97
2022-11-24T05:56:11.522Z,60.14
2022-11-24T05:58:42.472Z,60.04
2022-11-24T06:01:13.097Z,60.35
2022-11-24T06:03:43.888Z,59.59
2022-11-24T06:06:15.715Z,59.60
2022-11-24T06:08:47.115Z,59.53
2022-11-24T06:11:20.544Z,60.01
2022-11-24T06:13:51.911Z,60.26
2022-11-24T06:16:22.973Z,60.03
2022-11-24T06:18:54.305Z,59.39
2022-11-24T06:21:25.726Z,59.53
2022-11-24T06:23:58.069Z,60.14
2022-11-24T06:26:29.081Z,59.19
2022-11-24T06:28:59.730Z,59.29
2022-11-24T06:31:30.352Z,59.88
2022-11-24T06:34:02.138Z,59.56
2022-11-24T06:36:34.852Z,59.91
2022-11-24T06:39:06.243Z,59.81
2022-11-24T06:41:37.085Z,59.59
2022-11-24T06:44:07.947Z,60.22
2022-11-24T06:46:39.519Z,59.82
2022-11-24T06:49:10.222Z,59.83
2022-11-24T06:51:42.918Z,59.60
2022-11-24T06:54:19.514Z,59.17
2022-11-24T06:56:50.654Z,60.35
2022-11-24T06:59:24.500Z,59.95
2022-11-24T07:01:56.711Z,59.87
2022-11-24T07:04:27.210Z,59.68
2022-11-24T07:06:57.657Z,60.18
2022-11-24T07:09:27.947Z,59.42
2022-11-24T07:11:58.641Z,59.84
2022-11-24T07:14:28.857Z,60.73
2022-11-24T07:17:00.755Z,60.21
2022-11-24T07:19:33.291Z,59.70
2022-11-24T07:22:04.538Z,59.59
2022-11-24T07:24:36.578Z,60.21
2022-11-24T07:27:08.208Z,59.96
2022-11-24T07:29:38.543Z,60.18
2022-11-24T07:32:09.680Z,60.10
2022-11-24T07:34:41.594Z,59.96
2022-11-24T07:37:12.686Z,60.90
2022-11-24T07:39:43.173Z,60.08
2022-11-24T07:42:13.541Z,60.56
2022-11-24T07:44:43.840Z,60.39
2022-11-24T07:47:14.138Z,60.22
2022-11-24T07:49:45.342Z,60.12
2022-11-24T07:52:15.585Z,59.55
2022-11-24T07:54:45.778Z,59.64
2022-11-24T07:57:18.472Z,60.65
2022-11-24T07:59:48.915Z,59.62
2022-11-24T08:02:19.311Z,59.50
2022-11-24T08:04:49.551Z,60.19
2022-11-24T08:07:20.042Z,59.51
2022-11-24T08:09:51.723Z,59.30
2022-11-24T08:12:25.528Z,60.45
2022-11-24T08:14:55.952Z,60.20
2022-11-24T08:17:26.887Z,59.95
2022-11-24T08:19:58.365Z,59.20
2022-11-24T08:22:28.908Z,59.38
2022-11-24T08:24:59.272Z,60.19
2022-11-24T08:27:29.629Z,59.82
2022-11-24T08:30:00.048Z,59.55
2022-11-24T08:32:30.373Z,59.91
2022-11-24T08:35:13.534Z,59.94
2022-11-24T08:37:44.568Z,59.90
2022-11-24T08:40:16.416Z,59.98
2022-11-24T08:42:46.791Z,59.80
2022-11-24T08:45:20.398Z,59.61
2022-11-24T08:47:55.801Z,59.46
2022-11-24T08:50:28.804Z,59.48
2022-11-24T08:52:59.606Z,60.08
2022-11-24T08:55:29.980Z,59.43
2022-11-24T08:58:00.865Z,59.68
2022-11-24T09:00:31.275Z,59.48
2022-11-24T09:03:01.668Z,59.28
2022-11-24T09:08:22.565Z,59.50
2022-11-24T09:10:53.054Z,59.97
2022-11-24T09:13:23.698Z,59.50
2022-11-24T09:15:54.912Z,59.47
2022-11-24T09:18:30.101Z,59.46
2022-11-24T09:21:10.406Z,59.79
2022-11-24T09:23:41.916Z,59.65
2022-11-24T09:26:14.962Z,59.87
2022-11-24T09:28:45.927Z,59.82
2022-11-24T09:31:19.799Z,59.67
2022-11-24T09:33:50.977Z,59.26
2022-11-24T09:36:22.126Z,59.77
2022-11-24T09:38:53.106Z,59.58
2022-11-24T09:41:52.569Z,59.65
2022-11-24T09:44:44.665Z,59.88
2022-11-24T09:47:20.908Z,59.87
2022-11-24T09:50:20.275Z,59.60
2022-11-24T09:53:18.490Z,59.52
2022-11-24T09:55:55.346Z,59.94
2022-11-24T09:58:49.832Z,59.74
2022-11-24T10:01:36.098Z,59.48
2022-11-24T10:04:14.151Z,59.88
2022-11-24T10:07:02.476Z,59.37
2022-11-24T10:09:47.873Z,59.79
2022-11-24T10:12:40.961Z,59.90
2022-11-24T10:15:34.955Z,59.43
2022-11-24T10:18:35.644Z,59.54
2022-11-24T10:21:05.569Z,59.71
2022-11-24T10:23:53.979Z,60.01
2022-11-24T10:26:50.060Z,60.05
2022-11-24T10:29:39.543Z,59.65
2022-11-24T10:32:39.721Z,59.80
2022-11-24T10:35:22.361Z,60.07
2022-11-24T10:38:12.141Z,59.86
2022-11-24T10:41:02.716Z,59.83
2022-11-24T10:43:32.880Z,59.85
2022-11-24T10:46:18.284Z,59.59
2022-11-24T10:48:55.109Z,60.08
2022-11-24T10:51:37.678Z,59.77
2022-11-24T10:54:16.068Z,60.02
2022-11-24T10:56:48.808Z,59.89
2022-11-24T10:59:39.151Z,59.83
2022-11-24T11:02:29.675Z,59.75
2022-11-24T11:05:00.363Z,60.65
2022-11-24T11:07:30.801Z,59.97
2022-11-24T11:10:26.674Z,60.23
2022-11-24T11:12:57.499Z,60.60
2022-11-24T11:15:33.192Z,60.53
2022-11-24T11:18:06.217Z,61.10
2022-11-24T11:20:40.220Z,61.04
2022-11-24T11:23:32.648Z,60.35
2022-11-24T11:26:33.525Z,60.32
2022-11-24T11:35:17.128Z,60.05
2022-11-24T11:37:54.105Z,60.50
2022-11-24T11:40:35.121Z,60.10
2022-11-24T11:43:29.529Z,60.19
2022-11-24T11:46:44.213Z,59.79
2022-11-24T11:49:42.876Z,59.97
2022-11-24T11:52:38.205Z,60.34
2022-11-24T11:56:05.983Z,60.00
2022-11-24T11:59:15.735Z,60.34
2022-11-24T12:02:30.476Z,60.24
2022-11-24T12:05:27.113Z,59.35
2022-11-24T12:08:49.510Z,59.15
2022-11-24T12:11:41.870Z,58.70
2022-11-24T12:14:43.542Z,58.62
2022-11-24T12:17:58.037Z,60.68
2022-11-24T12:20:37.949Z,59.31
2022-11-24T12:23:38.557Z,59.28
2022-11-24T12:26:13.478Z,59.16
2022-11-24T12:29:13.297Z,59.21
2022-11-24T12:32:01.797Z,59.34
2022-11-24T12:34:57.227Z,59.83
2022-11-24T12:37:45.970Z,59.20
2022-11-24T12:40:33.007Z,59.30
2022-11-24T12:43:33.502Z,59.29
2022-11-24T12:46:25.933Z,59.51
2022-11-24T12:49:24.991Z,59.27
2022-11-24T12:52:07.388Z,59.77
2022-11-24T12:54:44.695Z,60.75
2022-11-24T12:57:27.344Z,60.89
2022-11-24T13:00:06.092Z,60.28
2022-11-24T13:02:52.786Z,60.19
2022-11-24T13:05:53.146Z,60.35
2022-11-24T13:08:25.065Z,60.38
2022-11-24T13:10:59.874Z,60.41
2022-11-24T13:13:54.949Z,60.51
2022-11-24T13:16:53.614Z,60.95
2022-11-24T13:19:47.994Z,60.91
2022-11-24T13:22:28.992Z,60.33
2022-11-24T13:25:26.010Z,59.90
2022-11-24T13:28:03.056Z,60.54
2022-11-24T13:30:38.555Z,59.76
2022-11-24T13:33:19.543Z,59.53
2022-11-24T13:36:10.181Z,59.56
2022-11-24T13:38:46.925Z,59.39
2022-11-24T13:41:34.441Z,59.53
2022-11-24T13:44:17.112Z,59.77
2022-11-24T13:47:23.783Z,59.87
2022-11-24T13:49:54.107Z,59.87
2022-11-24T13:52:42.776Z,59.78
2022-11-24T13:55:26.441Z,59.74
2022-11-24T13:58:29.720Z,60.24
2022-11-24T14:01:10.650Z,60.13
2022-11-24T14:04:21.501Z,60.44
2022-11-24T14:06:56.143Z,60.18
2022-11-24T14:09:35.520Z,61.43
2022-11-24T14:12:22.949Z,60.63
2022-11-24T14:14:59.477Z,60.35
2022-11-24T14:17:32.227Z,61.15
2022-11-24T14:20:18.096Z,60.42
2022-11-24T14:22:48.537Z,60.13
2022-11-24T14:25:27.235Z,60.19
2022-11-24T14:27:58.072Z,60.51
2022-11-24T14:30:28.984Z,59.99
2022-11-24T14:33:04.634Z,59.29
2022-11-24T14:35:39.076Z,59.63
2022-11-24T14:38:16.049Z,59.61
2022-11-24T14:40:57.511Z,59.81
2022-11-24T14:43:36.072Z,59.79
2022-11-24T14:46:15.750Z,60.24
2022-11-24T14:48:55.239Z,60.28
2022-11-24T14:51:47.395Z,60.63
2022-11-24T14:54:23.548Z,60.41
2022-11-24T14:57:06.010Z,60.43
2022-11-24T14:59:39.691Z,60.55
2022-11-24T15:02:49.826Z,60.42
2022-11-24T15:05:26.051Z,60.48
2022-11-24T15:08:06.955Z,60.59
2022-11-24T15:10:40.075Z,60.17
2022-11-24T15:13:23.510Z,60.47
2022-11-24T15:16:04.321Z,60.15
2022-11-24T15:19:07.998Z,60.49
2022-11-24T15:21:39.858Z,60.57
2022-11-24T15:24:21.579Z,60.17
2022-11-24T15:26:52.401Z,60.12
2022-11-24T15:29:23.841Z,59.67
2022-11-24T15:31:56.132Z,59.88
2022-11-24T15:34:28.186Z,59.79
2022-11-24T15:36:59.528Z,59.68
2022-11-24T15:39:30.224Z,59.54
2022-11-24T15:42:00.723Z,60.14
2022-11-24T15:44:31.574Z,60.52
2022-11-24T15:47:02.553Z,60.59
2022-11-24T15:49:36.719Z,60.73
2022-11-24T15:52:09.440Z,60.81
2022-11-24T15:54:40.386Z,60.66
2022-11-24T15:57:14.214Z,60.58
2022-11-24T15:59:45.804Z,60.89
2022-11-24T16:02:17.171Z,60.50
2022-11-24T16:04:47.751Z,60.89
2022-11-24T16:07:18.805Z,60.62
2022-11-24T16:09:53.066Z,60.34
2022-11-24T16:12:23.680Z,60.85
2022-11-24T16:14:57.986Z,60.82
2022-11-24T16:17:28.459Z,61.28
2022-11-24T16:20:02.093Z,61.58
2022-11-24T16:22:32.551Z,60.72
2022-11-24T16:25:04.291Z,61.26
2022-11-24T16:27:34.804Z,60.42
2022-11-24T16:30:04.490Z,59.94
2022-11-24T16:32:35.817Z,59.88
2022-11-24T16:35:08.657Z,59.89
2022-11-24T16:37:40.024Z,59.38
2022-11-24T16:40:11.591Z,60.11
2022-11-24T16:42:42.377Z,60.37
2022-11-24T16:45:15.251Z,60.44
2022-11-24T16:47:47.420Z,60.52
2022-11-24T16:50:18.422Z,60.51
2022-11-24T16:52:50.243Z,61.43
2022-11-24T16:55:22.969Z,60.62
2022-11-24T16:57:53.550Z,60.66
2022-11-24T17:00:24.153Z,60.72
2022-11-24T17:02:54.703Z,60.54
2022-11-24T17:05:25.174Z,60.66
2022-11-24T17:07:56.336Z,61.22
2022-11-24T17:10:27.242Z,60.87
2022-11-24T17:12:57.693Z,60.81
2022-11-24T17:15:40.849Z,61.18
2022-11-24T17:18:24.369Z,60.75
2022-11-24T17:21:03.178Z,60.58
2022-11-24T17:23:36.600Z,61.05
2022-11-24T17:26:09.032Z,60.60
2022-11-24T17:28:40.303Z,59.80
2022-11-24T17:31:29.753Z,60.07
2022-11-24T17:34:02.794Z,59.70
2022-11-24T17:36:34.975Z,60.03
2022-11-24T17:39:07.249Z,61.28
2022-11-24T17:41:39.074Z,61.42
2022-11-24T17:44:10.281Z,60.68
2022-11-24T17:46:41.980Z,61.34
2022-11-24T17:49:14.637Z,60.92
2022-11-24T17:51:47.390Z,61.22
2022-11-24T17:57:08.957Z,61.72
2022-11-24T17:59:38.992Z,62.38
2022-11-24T18:02:10.666Z,61.47
2022-11-24T18:04:41.088Z,62.19
2022-11-24T18:07:12.197Z,60.75
2022-11-24T18:09:42.190Z,61.06
2022-11-24T18:12:12.497Z,61.18
2022-11-24T18:14:42.473Z,61.08
2022-11-24T18:17:12.342Z,60.93
2022-11-24T18:19:42.373Z,60.94
2022-11-24T18:22:12.315Z,61.03
2022-11-24T18:24:42.382Z,61.04
2022-11-24T18:27:12.272Z,59.86
2022-11-24T18:29:42.164Z,59.63
2022-11-24T18:32:12.070Z,60.19
2022-11-24T18:34:42.082Z,60.26
2022-11-24T18:37:14.754Z,60.30
2022-11-24T18:39:44.885Z,60.15
2022-11-24T18:42:14.863Z,60.83
2022-11-24T18:44:49.738Z,60.90
2022-11-24T18:47:22.449Z,60.75
2022-11-24T18:49:52.533Z,61.17
2022-11-24T18:52:22.454Z,60.80
2022-11-24T18:54:52.398Z,60.93
2022-11-24T18:57:22.297Z,61.14
2022-11-24T18:59:52.214Z,61.68
2022-11-24T19:02:22.420Z,62.40
2022-11-24T19:04:52.418Z,61.38
2022-11-24T19:07:22.410Z,61.47
2022-11-24T19:09:53.540Z,61.18
2022-11-24T19:12:23.962Z,61.68
2022-11-24T19:14:55.023Z,60.92
2022-11-24T19:17:25.489Z,61.88
2022-11-24T19:19:55.562Z,61.42
2022-11-24T19:22:26.715Z,61.19
2022-11-24T19:24:58.123Z,60.58
2022-11-24T19:27:28.335Z,60.21
2022-11-24T19:29:58.407Z,60.68
2022-11-24T19:32:28.365Z,60.02
2022-11-24T19:34:58.250Z,60.46
2022-11-24T19:37:30.363Z,61.06
2022-11-24T19:40:02.692Z,60.71
2022-11-24T19:42:33.156Z,61.05
2022-11-24T19:45:03.761Z,60.64
2022-11-24T19:47:33.937Z,61.33
2022-11-24T19:50:08.922Z,60.89
2022-11-24T19:52:40.962Z,61.20
2022-11-24T19:55:11.485Z,60.95
2022-11-24T19:57:42.243Z,61.12
2022-11-24T20:00:12.953Z,61.46
2022-11-24T20:02:43.517Z,61.70
2022-11-24T20:05:14.966Z,61.59
2022-11-24T20:07:45.374Z,60.85
2022-11-24T20:10:15.497Z,61.42
2022-11-24T20:12:45.476Z,61.50
2022-11-24T20:15:17.164Z,61.89
2022-11-24T20:17:47.794Z,61.70
2022-11-24T20:20:17.845Z,61.93
2022-11-24T20:22:49.050Z,61.82
2022-11-24T20:25:19.590Z,61.08
2022-11-24T20:27:49.472Z,60.65
2022-11-24T20:30:19.448Z,60.76
2022-11-24T20:32:49.374Z,60.13
2022-11-24T20:35:19.381Z,60.80
2022-11-24T20:37:49.389Z,60.03
2022-11-24T20:40:20.368Z,60.76
2022-11-24T20:42:50.805Z,60.84
2022-11-24T20:45:20.913Z,60.77
2022-11-24T20:47:51.464Z,61.72
2022-11-24T20:50:22.486Z,61.14
2022-11-24T20:52:52.986Z,61.93
2022-11-24T20:55:23.139Z,62.15
2022-11-24T20:57:53.067Z,61.60
2022-11-24T21:00:24.128Z,62.29
2022-11-24T21:02:55.556Z,61.94
2022-11-24T21:05:26.401Z,62.03
2022-11-24T21:07:56.865Z,61.60
2022-11-24T21:10:29.097Z,62.06
2022-11-24T21:13:01.090Z,61.31
2022-11-24T21:15:32.803Z,61.93
2022-11-24T21:18:02.627Z,61.67
2022-11-24T21:20:36.714Z,61.35
2022-11-24T21:23:06.639Z,61.29
2022-11-24T21:25:38.610Z,61.59
2022-11-24T21:28:09.487Z,60.64
2022-11-24T21:30:40.916Z,60.83
2022-11-24T21:33:11.160Z,60.85
2022-11-24T21:35:42.034Z,60.58
2022-11-24T21:38:13.232Z,60.79
2022-11-24T21:40:48.831Z,60.96
2022-11-24T21:43:21.275Z,61.25
2022-11-24T21:45:53.148Z,61.39
2022-11-24T21:48:23.332Z,61.31
2022-11-24T21:50:54.372Z,62.26
2022-11-24T21:53:24.480Z,62.10
2022-11-24T21:56:02.894Z,61.71
2022-11-24T21:58:34.262Z,61.88
2022-11-24T22:01:12.615Z,61.02
2022-11-24T22:03:43.344Z,61.50
2022-11-24T22:06:14.157Z,61.57
2022-11-24T22:08:45.411Z,61.58
2022-11-24T22:11:23.399Z,61.67
2022-11-24T22:13:54.979Z,62.85
2022-11-24T22:16:27.446Z,61.90
2022-11-24T22:18:57.641Z,62.20
2022-11-24T22:21:32.998Z,62.13
2022-11-24T22:24:05.391Z,61.31
2022-11-24T22:26:36.019Z,62.23
2022-11-24T22:29:08.328Z,61.37
2022-11-24T22:31:38.684Z,61.59
2022-11-24T22:34:08.794Z,61.79
2022-11-24T22:36:39.485Z,61.72
2022-11-24T22:39:15.293Z,63.58
2022-11-24T22:41:46.398Z,62.73
2022-11-24T22:44:16.698Z,62.07
2022-11-24T22:46:47.088Z,62.31
2022-11-24T22:49:18.418Z,61.96
2022-11-24T22:51:48.707Z,63.68
2022-11-24T22:54:19.541Z,62.83
2022-11-24T22:56:49.725Z,63.56
2022-11-24T22:59:19.996Z,62.06
2022-11-24T23:01:49.967Z,63.65
2022-11-24T23:04:19.986Z,64.86
2022-11-24T23:06:50.096Z,64.56
2022-11-24T23:09:20.327Z,63.53
2022-11-24T23:11:51.844Z,62.42
2022-11-24T23:14:22.878Z,61.83
2022-11-24T23:16:54.323Z,62.75
2022-11-24T23:19:25.277Z,63.39
2022-11-24T23:21:55.420Z,63.15
2022-11-24T23:24:25.340Z,63.06
2022-11-24T23:26:56.424Z,62.99
2022-11-24T23:29:26.336Z,61.97
2022-11-24T23:31:56.619Z,62.42
2022-11-24T23:34:26.601Z,60.99
2022-11-24T23:36:57.618Z,61.61
2022-11-24T23:39:28.600Z,61.78
2022-11-24T23:41:59.740Z,61.66
2022-11-24T23:44:31.057Z,62.25
2022-11-24T23:47:02.109Z,61.72
2022-11-24T23:49:32.090Z,61.76
2022-11-24T23:52:03.586Z,62.56
2022-11-24T23:54:52.604Z,61.40
2022-11-24T23:57:44.234Z,61.85
